»·PEaware :: SWA3103 KLGB-KLAS

SWA3103 :: KLGB-KLAS

FLIGHT INFORMATION

Flight Status: Arrived
Operator:
Southwest Airlines
More flights by this operator :: More flights under this callsign
Pilot: Shane F. (23676)
Aircraft: BOEING 737-800
(B738)
More flights by this aircraft type
Origin: KLGB Long Beach
United States
Destination: KLAS McCarran Intl
United States
More flights between these airports :: More routes between these airports
Route: ZOOMM3 MISEN KEPEC6
File this flight plan on PilotEdge
Remarks:
Altitude:
(Current/Filed)
29,000ft
Speed:
(Current/Filed)
452kts
Departed: 11-Jan-21 01:39 PM
Arrived: 11-Jan-21 02:21 PM
Distance/Time
Traveled:
200nm/0:42
Distance/Time
To Go:
Arrived

Flight Plot

Page will automatically refresh every two minutes.

Flight plan parsing failed; only flown route is shown


Map Options




Map Legend


Flown Route
Filed Route
Departure Airport
Arrival Airport
Navaid (VOR, NDB)
Fix

Horizontal Profiles

Position Reports

Time Latitude Longitude Heading Altitude Ground
Speed
11-Jan-21 13:06 33.817398 -118.146215 89 43ft 0kts
11-Jan-21 13:07 33.817398 -118.146215 89 43ft 0kts
11-Jan-21 13:08 33.817398 -118.146215 89 43ft 0kts
11-Jan-21 13:08 33.817398 -118.146215 89 43ft 0kts
11-Jan-21 13:10 33.817398 -118.146215 89 43ft 0kts
11-Jan-21 13:11 33.817398 -118.146215 89 43ft 0kts
11-Jan-21 13:11 33.817398 -118.146215 89 43ft 0kts
11-Jan-21 13:12 33.817398 -118.146215 90 42ft 0kts
11-Jan-21 13:13 33.817398 -118.146215 90 42ft 0kts
11-Jan-21 13:15 33.817398 -118.146215 90 42ft 0kts
11-Jan-21 13:15 33.817398 -118.146215 90 42ft 0kts
11-Jan-21 13:16 33.817398 -118.146215 90 42ft 0kts
11-Jan-21 13:17 33.817398 -118.146215 90 42ft 0kts
11-Jan-21 13:18 33.817398 -118.146215 90 42ft 0kts
11-Jan-21 13:19 33.817398 -118.146215 90 42ft 0kts
11-Jan-21 13:20 33.817398 -118.146215 90 42ft 0kts
11-Jan-21 13:21 33.817398 -118.146215 90 42ft 0kts
11-Jan-21 13:22 33.817398 -118.146215 90 42ft 0kts
11-Jan-21 13:23 33.817398 -118.146215 90 42ft 0kts
11-Jan-21 13:24 33.817398 -118.146215 90 42ft 0kts
11-Jan-21 13:25 33.817398 -118.146215 90 42ft 0kts
11-Jan-21 13:26 33.817398 -118.146215 90 42ft 0kts
11-Jan-21 13:27 33.817398 -118.146215 90 42ft 0kts
11-Jan-21 13:28 33.817398 -118.146215 90 42ft 0kts
11-Jan-21 13:29 33.817398 -118.146215 90 42ft 0kts
11-Jan-21 13:30 33.817398 -118.146659 90 43ft 2kts
11-Jan-21 13:31 33.817686 -118.147004 181 43ft 0kts
11-Jan-21 13:32 33.817686 -118.147004 181 43ft 0kts
11-Jan-21 13:33 33.817686 -118.147004 181 43ft 0kts
11-Jan-21 13:34 33.817395 -118.147012 181 43ft 11kts
11-Jan-21 13:35 33.813868 -118.144757 132 38ft 15kts
11-Jan-21 13:36 33.810773 -118.140987 133 33ft 15kts
11-Jan-21 13:37 33.808031 -118.137679 144 32ft 13kts
11-Jan-21 13:38 33.815923 -118.149100 314 45ft 144kts
11-Jan-21 13:39 33.847293 -118.190894 311 1850ft 192kts
11-Jan-21 13:40 33.824167 -118.245747 194 3949ft 265kts
11-Jan-21 13:41 33.750599 -118.264604 192 7235ft 282kts
11-Jan-21 13:42 33.672070 -118.284125 188 10335ft 298kts
11-Jan-21 13:43 33.621275 -118.214422 74 12102ft 341kts
11-Jan-21 13:44 33.690569 -118.139606 32 15019ft 346kts
11-Jan-21 13:45 33.769994 -118.069945 34 17741ft 359kts
11-Jan-21 13:46 33.850930 -117.995676 34 20182ft 371kts
11-Jan-21 13:47 33.934792 -117.918690 34 22351ft 383kts
11-Jan-21 13:48 34.021156 -117.839821 34 24269ft 395kts
11-Jan-21 13:49 34.103659 -117.749034 45 25925ft 411kts
11-Jan-21 13:50 34.180397 -117.641019 49 27369ft 427kts
11-Jan-21 13:51 34.257322 -117.527958 50 28763ft 440kts
11-Jan-21 13:52 34.335730 -117.411252 50 29285ft 450kts
11-Jan-21 13:53 34.414181 -117.293770 51 29315ft 447kts
11-Jan-21 13:54 34.492723 -117.175951 51 29301ft 448kts
11-Jan-21 13:55 34.571173 -117.058878 50 29338ft 447kts
11-Jan-21 13:56 34.651311 -116.942225 50 29344ft 448kts
11-Jan-21 13:57 34.731396 -116.825360 50 29347ft 448kts
11-Jan-21 13:58 34.807404 -116.714047 50 29351ft 419kts
11-Jan-21 13:59 34.889615 -116.611920 39 29338ft 421kts
11-Jan-21 14:00 34.980561 -116.522549 38 26653ft 418kts
11-Jan-21 14:01 35.069532 -116.436062 38 24491ft 399kts
11-Jan-21 14:02 35.148956 -116.345206 45 24339ft 393kts
11-Jan-21 14:03 35.225051 -116.250251 45 24338ft 390kts
11-Jan-21 14:04 35.301107 -116.154863 45 24338ft 390kts
11-Jan-21 14:05 35.377113 -116.059222 45 24320ft 391kts
11-Jan-21 14:06 35.453049 -115.963385 45 24319ft 391kts
11-Jan-21 14:07 35.529119 -115.867108 45 20618ft 409kts
11-Jan-21 14:08 35.608953 -115.765604 45 14536ft 409kts
11-Jan-21 14:09 35.679940 -115.674916 46 12997ft 310kts
11-Jan-21 14:10 35.744339 -115.612459 13 13021ft 302kts
11-Jan-21 14:11 35.826404 -115.591880 10 13009ft 301kts
11-Jan-21 14:12 35.898606 -115.546505 46 13009ft 297kts
11-Jan-21 14:13 35.955104 -115.472213 45 11870ft 293kts
11-Jan-21 14:14 36.008819 -115.399709 57 11002ft 272kts
11-Jan-21 14:15 36.034074 -115.314511 56 9984ft 265kts
11-Jan-21 14:16 36.086870 -115.251836 41 8912ft 259kts
11-Jan-21 14:17 36.140170 -115.193365 41 6945ft 251kts
11-Jan-21 14:18 36.156688 -115.131741 144 5171ft 212kts
11-Jan-21 14:19 36.108947 -115.151142 205 2347ft 182kts
11-Jan-21 14:20 36.083520 -115.164865 178 2152ft 22kts
11-Jan-21 14:21 36.082504 -115.164593 146 2154ft 11kts
11-Jan-21 14:22 36.081648 -115.155739 89 2126ft 31kts

Navigation Log

Ident Type
Flight plan parsing failed, navigation log unavailable